Time;durP1;ratioP1;P1;durP2;ratioP2;P2;SDS_P1;SDS_P2;PMS_P1;PMS_P2;Temp;Humidity;BMP_temperature;BMP_pressure;BME280_temperature;BME280_humidity;BME280_pressure;Samples;Min_cycle;Max_cycle;Signal;HPM_P1;HPM_P2
2023/02/18 00:02:04;;;;;;;6.13;3.30;;;10.90;99.90;;;;;;5007591;28;20053;-76
2023/02/18 00:04:29;;;;;;;4.40;2.90;;;10.90;99.90;;;;;;5010110;28;20143;-76
2023/02/18 00:06:55;;;;;;;3.67;2.60;;;10.90;99.90;;;;;;5005854;28;20034;-77
2023/02/18 00:09:20;;;;;;;5.87;3.10;;;10.80;99.90;;;;;;5007608;28;20101;-77
2023/02/18 00:11:46;;;;;;;7.37;3.33;;;10.80;99.90;;;;;;5007058;28;20040;-77
2023/02/18 00:14:14;;;;;;;8.37;3.73;;;10.70;99.90;;;;;;5008487;28;20073;-77
2023/02/18 00:16:40;;;;;;;8.47;3.70;;;10.70;99.90;;;;;;5007425;28;20037;-77
2023/02/18 00:19:08;;;;;;;7.33;3.80;;;10.70;99.90;;;;;;5004793;28;20364;-77
2023/02/18 00:21:36;;;;;;;4.87;3.27;;;10.70;99.90;;;;;;5007476;28;20530;-77
2023/02/18 00:24:03;;;;;;;5.77;3.10;;;10.60;99.90;;;;;;5005975;28;20049;-77
2023/02/18 00:26:29;;;;;;;7.57;3.57;;;10.60;99.90;;;;;;5007050;28;20113;-77
2023/02/18 00:28:55;;;;;;;5.37;3.20;;;10.60;99.90;;;;;;5003142;28;20120;-77
2023/02/18 00:31:27;;;;;;;7.57;3.20;;;10.50;99.90;;;;;;5007984;28;20018;-77
2023/02/18 00:33:53;;;;;;;6.70;3.10;;;10.50;99.90;;;;;;5003845;28;20036;-77
2023/02/18 00:36:20;;;;;;;7.73;3.00;;;10.50;99.90;;;;;;5005445;28;20079;-77
2023/02/18 00:38:48;;;;;;;5.13;3.20;;;10.40;99.90;;;;;;5004308;28;20467;-77
2023/02/18 00:41:15;;;;;;;5.57;3.20;;;10.50;99.90;;;;;;5005600;28;20026;-76
2023/02/18 00:43:40;;;;;;;6.80;3.03;;;10.50;99.90;;;;;;5007353;28;20037;-77
2023/02/18 00:46:06;;;;;;;8.40;3.37;;;10.40;99.90;;;;;;5010594;28;20194;-77
2023/02/18 00:48:33;;;;;;;4.90;2.83;;;10.30;99.90;;;;;;5009876;28;20449;-77
2023/02/18 00:50:59;;;;;;;4.60;2.67;;;10.30;99.90;;;;;;5009892;28;20022;-77
2023/02/18 00:53:26;;;;;;;5.60;3.23;;;10.30;99.90;;;;;;5005836;28;20046;-77
2023/02/18 00:55:51;;;;;;;6.00;3.13;;;10.40;99.90;;;;;;5009234;28;20479;-77
2023/02/18 00:58:19;;;;;;;3.83;2.90;;;10.30;99.90;;;;;;5006899;28;20088;-77
2023/02/18 01:00:45;;;;;;;6.33;3.10;;;10.30;99.90;;;;;;5009197;28;20033;-77
2023/02/18 01:03:11;;;;;;;4.43;2.60;;;10.20;99.90;;;;;;5003666;28;20042;-77
2023/02/18 01:05:37;;;;;;;4.83;2.70;;;10.30;99.90;;;;;;5008294;28;20455;-77
2023/02/18 01:08:04;;;;;;;3.73;2.50;;;10.30;99.90;;;;;;5004565;28;20033;-77
2023/02/18 01:10:31;;;;;;;6.53;2.77;;;10.30;99.90;;;;;;5009638;28;20451;-77
2023/02/18 01:12:56;;;;;;;4.03;2.50;;;10.30;99.90;;;;;;5006781;28;20085;-77
2023/02/18 01:15:22;;;;;;;4.83;2.40;;;10.20;99.90;;;;;;5010424;28;20113;-77
2023/02/18 01:17:48;;;;;;;5.57;3.10;;;10.20;99.90;;;;;;5010023;28;20383;-77
2023/02/18 01:20:14;;;;;;;3.87;2.43;;;10.20;99.90;;;;;;5006150;28;20053;-76
2023/02/18 01:22:40;;;;;;;4.20;2.80;;;10.20;99.90;;;;;;5007438;28;20021;-77
2023/02/18 01:25:07;;;;;;;4.73;2.70;;;10.10;99.90;;;;;;5007126;28;20026;-77
2023/02/18 01:27:33;;;;;;;4.60;2.63;;;10.00;99.90;;;;;;5006793;28;20029;-77
2023/02/18 01:29:58;;;;;;;5.67;2.80;;;10.00;99.90;;;;;;5009732;28;20022;-77
2023/02/18 01:32:24;;;;;;;8.40;3.07;;;9.90;99.90;;;;;;5007255;28;20844;-77
2023/02/18 01:34:50;;;;;;;4.30;2.60;;;9.80;99.90;;;;;;5007999;28;20027;-77
2023/02/18 01:37:15;;;;;;;4.77;2.80;;;9.90;99.90;;;;;;5002527;28;20022;-76
2023/02/18 01:39:41;;;;;;;6.23;2.80;;;9.80;99.90;;;;;;5003273;28;20029;-77
2023/02/18 01:42:15;;;;;;;4.83;2.80;;;9.80;99.90;;;;;;5003811;28;20033;-77
2023/02/18 01:44:40;;;;;;;4.10;2.83;;;9.80;99.90;;;;;;5005901;28;20482;-77
2023/02/18 01:47:06;;;;;;;5.30;3.10;;;9.80;99.90;;;;;;5007471;28;20084;-77
2023/02/18 01:49:34;;;;;;;5.10;3.03;;;9.80;99.90;;;;;;5010335;28;20022;-77
2023/02/18 01:52:05;;;;;;;7.47;3.53;;;9.80;99.90;;;;;;5004636;28;20460;-77
2023/02/18 01:54:34;;;;;;;5.03;3.07;;;9.80;99.90;;;;;;5002248;28;20022;-77
2023/02/18 01:57:06;;;;;;;6.20;3.30;;;9.80;99.90;;;;;;5008245;28;20358;-77
2023/02/18 01:59:37;;;;;;;4.43;2.80;;;9.80;99.90;;;;;;5006047;28;20041;-77
2023/02/18 02:02:07;;;;;;;7.43;3.90;;;9.80;99.90;;;;;;5006024;28;20116;-77
2023/02/18 02:04:33;;;;;;;6.23;3.30;;;9.90;99.90;;;;;;5006622;28;20026;-76
2023/02/18 02:06:59;;;;;;;5.57;3.40;;;9.90;99.90;;;;;;5004384;28;20029;-77
2023/02/18 02:09:26;;;;;;;7.07;3.30;;;9.90;99.90;;;;;;5006528;28;20018;-76
2023/02/18 02:12:17;;;;;;;7.50;3.47;;;9.90;99.90;;;;;;5004619;28;20030;-77
2023/02/18 02:14:54;;;;;;;5.30;3.40;;;9.80;99.90;;;;;;5009037;28;20426;-77
2023/02/18 02:17:34;;;;;;;4.87;3.10;;;9.80;99.90;;;;;;5005382;28;20027;-77
2023/02/18 02:20:18;;;;;;;4.60;3.13;;;9.80;99.90;;;;;;5004888;28;20034;-77
2023/02/18 02:23:18;;;;;;;5.20;3.23;;;9.80;99.90;;;;;;5014187;28;20022;-77
2023/02/18 02:25:52;;;;;;;6.57;3.20;;;9.80;99.90;;;;;;5014524;28;20018;-76
2023/02/18 02:28:20;;;;;;;3.90;2.70;;;9.90;99.90;;;;;;5011889;28;20026;-76
2023/02/18 02:31:07;;;;;;;5.10;2.80;;;9.90;99.90;;;;;;5010616;28;20022;-77
2023/02/18 02:34:21;;;;;;;5.97;3.00;;;10.00;99.90;;;;;;5014989;28;20038;-77
2023/02/18 02:37:26;;;;;;;6.80;2.63;;;10.00;99.90;;;;;;5000396;28;20030;-77
2023/02/18 02:40:13;;;;;;;4.47;2.65;;;10.00;99.90;;;;;;5010632;28;20216;-77
2023/02/18 02:42:51;;;;;;;4.60;2.90;;;10.10;99.90;;;;;;5013088;28;20479;-77
2023/02/18 02:45:32;;;;;;;5.17;2.87;;;10.10;99.90;;;;;;5025747;28;20390;-77
2023/02/18 02:48:29;;;;;;;6.27;2.70;;;10.10;99.90;;;;;;5012955;28;20034;-76
2023/02/18 02:51:26;;;;;;;4.90;2.87;;;10.10;99.90;;;;;;5014735;28;20026;-77
2023/02/18 02:53:52;;;;;;;3.53;2.70;;;10.10;99.90;;;;;;5006833;28;20378;-77
2023/02/18 02:56:21;;;;;;;4.33;3.00;;;10.10;99.90;;;;;;5009341;28;20026;-77
2023/02/18 02:59:00;;;;;;;4.37;2.50;;;10.10;99.90;;;;;;5010505;28;20060;-77
2023/02/18 03:01:47;;;;;;;7.53;3.57;;;10.10;99.90;;;;;;5012753;28;20113;-77
2023/02/18 03:04:34;;;;;;;4.97;2.60;;;10.00;99.90;;;;;;5006890;28;20584;-77
2023/02/18 03:07:26;;;;;;;4.33;2.40;;;10.00;99.90;;;;;;5009970;28;20430;-77
2023/02/18 03:09:57;;;;;;;4.83;2.33;;;10.10;99.90;;;;;;5011134;28;20021;-77
2023/02/18 03:12:38;;;;;;;3.37;2.57;;;10.10;99.90;;;;;;5014864;28;20414;-77
2023/02/18 03:15:29;;;;;;;3.97;2.20;;;10.10;99.90;;;;;;5011398;28;20076;-77
2023/02/18 03:18:02;;;;;;;3.97;2.40;;;10.20;99.90;;;;;;5013863;28;20084;-77
2023/02/18 03:20:34;;;;;;;3.43;2.20;;;10.20;99.90;;;;;;5014253;28;20022;-77
2023/02/18 03:23:04;;;;;;;3.67;2.30;;;10.40;99.90;;;;;;5014350;28;20261;-77
2023/02/18 03:25:32;;;;;;;2.90;2.00;;;10.40;99.90;;;;;;5011777;28;20030;-77
2023/02/18 03:28:07;;;;;;;4.77;2.23;;;10.40;99.90;;;;;;5008437;28;20458;-77
2023/02/18 03:30:51;;;;;;;4.57;2.05;;;10.50;99.90;;;;;;5013959;28;20382;-77
2023/02/18 03:33:25;;;;;;;4.03;2.20;;;10.50;99.90;;;;;;5014321;28;20376;-77
2023/02/18 03:35:53;;;;;;;3.63;2.20;;;10.40;99.90;;;;;;5006098;28;20026;-77
2023/02/18 03:38:34;;;;;;;4.27;1.90;;;10.40;99.90;;;;;;5011126;28;20026;-77
2023/02/18 03:40:59;;;;;;;3.27;2.00;;;10.40;99.90;;;;;;5004227;28;20113;-77
2023/02/18 03:43:25;;;;;;;4.37;2.30;;;10.40;99.90;;;;;;5010132;28;20105;-77
2023/02/18 03:45:51;;;;;;;4.57;1.93;;;10.40;99.90;;;;;;5007384;28;20022;-77
2023/02/18 03:48:17;;;;;;;4.03;2.17;;;10.40;99.90;;;;;;5008732;28;20374;-77
2023/02/18 03:50:42;;;;;;;3.67;2.27;;;10.40;99.90;;;;;;5006366;28;20068;-77
2023/02/18 03:53:08;;;;;;;2.87;2.00;;;10.30;99.90;;;;;;5010242;28;20038;-77
2023/02/18 03:55:33;;;;;;;2.30;1.87;;;10.40;99.90;;;;;;5011581;28;20025;-77
2023/02/18 03:57:59;;;;;;;3.07;2.03;;;10.40;99.90;;;;;;5008749;28;20041;-77
2023/02/18 04:00:25;;;;;;;3.57;1.77;;;10.20;99.90;;;;;;5009193;28;20098;-77
2023/02/18 04:02:50;;;;;;;4.27;2.23;;;10.20;99.90;;;;;;5009083;28;20347;-77
2023/02/18 04:05:16;;;;;;;2.33;1.70;;;10.20;99.90;;;;;;5009594;28;20018;-77
2023/02/18 04:07:41;;;;;;;3.77;1.90;;;10.20;99.90;;;;;;5010574;28;20121;-77
2023/02/18 04:10:07;;;;;;;4.07;2.20;;;10.10;99.90;;;;;;5010502;28;20092;-77
2023/02/18 04:12:33;;;;;;;3.17;2.30;;;10.20;99.90;;;;;;5006586;28;20069;-77
2023/02/18 04:14:58;;;;;;;3.53;2.10;;;10.10;99.90;;;;;;5010098;28;20395;-77
2023/02/18 04:17:24;;;;;;;3.03;2.30;;;10.10;99.90;;;;;;5007039;28;20093;-77
2023/02/18 04:19:50;;;;;;;5.80;2.67;;;10.00;99.90;;;;;;5007795;28;20057;-77
2023/02/18 04:22:15;;;;;;;3.67;2.23;;;10.10;99.90;;;;;;5002276;28;20456;-77
2023/02/18 04:24:41;;;;;;;5.13;2.37;;;10.10;99.90;;;;;;5007866;28;20101;-77
2023/02/18 04:27:06;;;;;;;4.50;2.20;;;10.00;99.90;;;;;;5005935;28;20467;-77
2023/02/18 04:29:32;;;;;;;2.83;1.97;;;10.00;99.90;;;;;;5008121;28;20028;-77
2023/02/18 04:31:57;;;;;;;3.23;2.10;;;10.00;99.90;;;;;;5010272;28;20030;-77
2023/02/18 04:34:23;;;;;;;3.67;2.30;;;9.90;99.90;;;;;;5006751;28;20033;-77
2023/02/18 04:36:48;;;;;;;2.90;2.20;;;9.90;99.90;;;;;;5006368;28;20024;-77
2023/02/18 04:39:14;;;;;;;2.80;2.07;;;9.90;99.90;;;;;;5005616;28;20080;-77
2023/02/18 04:41:39;;;;;;;3.43;2.50;;;9.90;99.90;;;;;;5010034;28;20173;-77
2023/02/18 04:44:05;;;;;;;2.57;1.90;;;9.90;99.90;;;;;;5007927;28;20034;-77
2023/02/18 04:46:31;;;;;;;3.23;2.03;;;9.80;99.90;;;;;;5009393;28;20104;-77
2023/02/18 04:48:57;;;;;;;2.87;2.00;;;9.80;99.90;;;;;;5009123;28;20045;-77
2023/02/18 04:51:22;;;;;;;3.33;1.83;;;9.80;99.90;;;;;;5010156;28;20023;-77
2023/02/18 04:53:48;;;;;;;3.23;1.90;;;9.80;99.90;;;;;;5007779;28;20026;-77
2023/02/18 04:56:14;;;;;;;2.00;1.57;;;9.80;99.90;;;;;;5010079;28;20026;-77
2023/02/18 04:58:39;;;;;;;2.43;1.83;;;9.80;99.90;;;;;;5002624;28;20038;-77
2023/02/18 05:01:05;;;;;;;2.93;2.00;;;9.90;99.90;;;;;;5009746;28;20049;-77
2023/02/18 05:03:31;;;;;;;2.27;1.90;;;9.90;99.90;;;;;;4999814;28;20506;-77
2023/02/18 05:05:57;;;;;;;2.80;1.80;;;9.80;99.90;;;;;;5007969;28;20026;-77
2023/02/18 05:08:22;;;;;;;2.73;1.70;;;9.90;99.90;;;;;;5003817;28;20050;-77
2023/02/18 05:10:48;;;;;;;2.67;1.73;;;9.80;99.90;;;;;;5004765;28;20065;-77
2023/02/18 05:13:14;;;;;;;2.50;1.67;;;9.90;99.90;;;;;;5006004;28;20026;-77
2023/02/18 05:15:40;;;;;;;3.40;2.03;;;9.90;99.90;;;;;;5005913;28;20085;-77
2023/02/18 05:18:06;;;;;;;3.00;1.50;;;9.90;99.90;;;;;;5006831;28;20058;-77
2023/02/18 05:20:32;;;;;;;2.07;1.50;;;9.90;99.90;;;;;;5006530;28;20037;-77
2023/02/18 05:22:57;;;;;;;2.40;1.60;;;10.00;99.90;;;;;;5007706;28;20026;-77
2023/02/18 05:25:23;;;;;;;2.27;1.63;;;10.00;99.90;;;;;;5003978;28;20037;-77
2023/02/18 05:27:49;;;;;;;2.30;1.70;;;10.00;99.90;;;;;;5002485;28;20045;-77
2023/02/18 05:30:14;;;;;;;2.30;1.70;;;9.90;99.90;;;;;;5005500;28;20026;-77
2023/02/18 05:32:40;;;;;;;2.27;1.50;;;9.90;99.90;;;;;;5006226;28;20839;-77
2023/02/18 05:35:06;;;;;;;3.73;1.50;;;9.90;99.90;;;;;;5008224;28;20034;-77
2023/02/18 05:37:32;;;;;;;1.80;1.40;;;9.90;99.90;;;;;;5005130;28;20060;-76
2023/02/18 05:39:57;;;;;;;2.00;1.40;;;10.00;99.90;;;;;;5003147;28;20416;-77
2023/02/18 05:42:23;;;;;;;3.73;1.50;;;10.00;99.90;;;;;;5003223;28;20034;-77
2023/02/18 05:44:48;;;;;;;1.70;1.20;;;9.90;99.90;;;;;;5005584;28;20037;-77
2023/02/18 05:47:14;;;;;;;2.43;1.30;;;9.90;99.90;;;;;;5005517;28;20030;-77
2023/02/18 05:49:41;;;;;;;1.73;1.20;;;9.90;99.90;;;;;;5006393;28;20034;-77
2023/02/18 05:52:07;;;;;;;2.40;1.40;;;9.80;99.90;;;;;;5007432;28;20042;-77
2023/02/18 05:54:34;;;;;;;1.70;1.33;;;9.80;99.90;;;;;;5005122;28;20093;-77
2023/02/18 05:57:00;;;;;;;2.07;1.40;;;9.80;99.90;;;;;;5002732;28;20227;-77
2023/02/18 05:59:25;;;;;;;2.03;1.20;;;9.80;99.90;;;;;;5005692;28;20138;-77
2023/02/18 06:01:51;;;;;;;1.77;1.10;;;9.90;99.90;;;;;;5005021;28;20041;-76
2023/02/18 06:04:17;;;;;;;1.63;1.10;;;9.90;99.90;;;;;;5005269;28;20029;-77
2023/02/18 06:06:42;;;;;;;1.40;1.20;;;9.90;99.90;;;;;;5003597;28;20037;-77
2023/02/18 06:09:08;;;;;;;2.47;1.10;;;9.90;99.90;;;;;;5003147;28;20026;-76
2023/02/18 06:11:34;;;;;;;1.80;1.10;;;10.00;99.90;;;;;;5008963;28;20038;-77
2023/02/18 06:14:00;;;;;;;1.80;1.10;;;10.10;99.90;;;;;;5006140;28;20030;-76
2023/02/18 06:16:27;;;;;;;1.50;1.20;;;10.20;99.90;;;;;;5006081;28;20069;-77
2023/02/18 06:18:52;;;;;;;1.10;1.00;;;10.20;99.90;;;;;;5006547;28;20467;-77
2023/02/18 06:21:18;;;;;;;2.97;1.20;;;10.20;99.90;;;;;;5004053;28;20087;-77
2023/02/18 06:23:44;;;;;;;2.07;1.17;;;10.20;99.90;;;;;;5000883;28;20027;-77
2023/02/18 06:26:10;;;;;;;3.10;1.40;;;10.20;99.90;;;;;;5005842;28;20030;-77
2023/02/18 06:28:35;;;;;;;1.57;1.10;;;10.20;99.90;;;;;;5008936;28;20026;-77
2023/02/18 06:31:01;;;;;;;1.03;0.90;;;10.30;99.90;;;;;;5008419;28;20035;-77
2023/02/18 06:33:27;;;;;;;2.10;1.00;;;10.40;99.90;;;;;;5001459;28;20060;-77
2023/02/18 06:35:58;;;;;;;2.73;1.30;;;10.30;99.90;;;;;;5003726;28;20217;-77
2023/02/18 06:38:24;;;;;;;1.43;1.07;;;10.40;99.90;;;;;;5006904;28;20022;-77
2023/02/18 06:40:52;;;;;;;1.43;1.20;;;10.40;99.90;;;;;;5004649;28;20626;-79
2023/02/18 06:43:19;;;;;;;2.53;1.13;;;10.40;99.90;;;;;;5003768;28;20045;-79
2023/02/18 06:45:44;;;;;;;1.30;0.93;;;10.40;99.90;;;;;;5003656;28;20050;-80
2023/02/18 06:48:11;;;;;;;0.90;0.80;;;10.30;99.90;;;;;;5005048;28;20038;-79
2023/02/18 06:50:36;;;;;;;1.50;0.90;;;10.40;99.90;;;;;;5004000;28;20030;-79
2023/02/18 06:53:02;;;;;;;1.20;1.00;;;10.40;99.90;;;;;;5002432;28;20048;-80
2023/02/18 06:55:27;;;;;;;1.40;0.90;;;10.40;99.90;;;;;;5003404;28;20041;-80
2023/02/18 06:57:53;;;;;;;1.20;0.97;;;10.50;99.90;;;;;;5004615;28;20085;-79
2023/02/18 07:00:19;;;;;;;1.27;1.00;;;10.50;99.90;;;;;;5004732;28;20034;-79
2023/02/18 07:02:44;;;;;;;2.40;1.27;;;10.50;99.90;;;;;;5003655;28;20049;-80
2023/02/18 07:05:10;;;;;;;1.07;0.80;;;10.70;99.90;;;;;;5013033;28;20037;-80
2023/02/18 07:07:35;;;;;;;1.67;1.13;;;10.60;99.90;;;;;;5005896;28;20446;-79
2023/02/18 07:10:01;;;;;;;2.27;1.10;;;10.70;99.90;;;;;;5002982;28;20652;-79
2023/02/18 07:12:27;;;;;;;2.07;0.90;;;10.70;99.90;;;;;;5006372;28;20056;-80
2023/02/18 07:14:52;;;;;;;1.40;0.90;;;10.70;99.90;;;;;;5008457;28;20758;-80
2023/02/18 07:17:18;;;;;;;1.77;1.13;;;10.70;99.90;;;;;;5006285;28;20037;-80
2023/02/18 07:19:45;;;;;;;1.47;0.90;;;10.80;99.90;;;;;;5007075;28;20068;-79
2023/02/18 07:22:11;;;;;;;1.57;1.03;;;10.80;99.90;;;;;;5000148;28;20087;-80
2023/02/18 07:24:37;;;;;;;0.90;0.80;;;10.80;99.90;;;;;;5006528;28;20112;-79
2023/02/18 07:27:02;;;;;;;0.70;0.70;;;10.90;99.90;;;;;;5005297;28;20060;-80
2023/02/18 07:29:28;;;;;;;1.63;0.90;;;10.90;99.90;;;;;;5006461;28;20061;-73
2023/02/18 07:31:54;;;;;;;1.60;0.73;;;10.90;99.90;;;;;;5008835;28;20022;-80
2023/02/18 07:34:22;;;;;;;2.30;0.93;;;10.90;99.90;;;;;;5008670;28;20037;-79
2023/02/18 07:36:47;;;;;;;2.47;0.97;;;11.00;99.90;;;;;;5001146;28;20077;-79
2023/02/18 07:39:13;;;;;;;1.00;0.90;;;11.00;99.90;;;;;;5005114;28;20566;-79
2023/02/18 07:41:39;;;;;;;1.20;0.90;;;11.00;99.90;;;;;;5004914;28;20391;-79
2023/02/18 07:44:04;;;;;;;1.00;0.80;;;11.10;99.90;;;;;;5004125;28;20022;-78
2023/02/18 07:46:30;;;;;;;1.20;0.90;;;11.10;99.90;;;;;;5004613;28;20921;-79
2023/02/18 07:48:56;;;;;;;2.60;1.00;;;11.10;99.90;;;;;;5003893;28;20030;-79
2023/02/18 07:51:22;;;;;;;2.40;0.83;;;11.10;99.90;;;;;;5010227;28;20025;-79
2023/02/18 07:53:47;;;;;;;1.43;0.63;;;11.20;99.90;;;;;;5012734;28;20045;-79
2023/02/18 07:56:13;;;;;;;1.67;0.80;;;11.20;99.90;;;;;;5010356;28;20108;-79
2023/02/18 07:58:39;;;;;;;0.97;0.80;;;11.30;99.90;;;;;;5013391;28;20038;-79
2023/02/18 08:01:06;;;;;;;1.80;0.90;;;11.40;99.90;;;;;;5003361;28;20065;-79
2023/02/18 08:03:33;;;;;;;1.20;1.00;;;11.40;99.90;;;;;;5006426;28;20034;-82
2023/02/18 08:05:59;;;;;;;1.80;1.00;;;11.30;99.90;;;;;;5004856;28;20018;-79
2023/02/18 08:08:27;;;;;;;1.70;1.00;;;11.30;99.90;;;;;;5005517;28;20435;-78
2023/02/18 08:10:54;;;;;;;1.47;1.00;;;11.30;99.90;;;;;;5004106;28;20033;-79
2023/02/18 08:13:21;;;;;;;2.37;0.90;;;11.30;99.90;;;;;;5005534;28;20093;-79
2023/02/18 08:15:46;;;;;;;1.13;0.87;;;11.30;99.90;;;;;;5006707;28;20054;-80
2023/02/18 08:18:19;;;;;;;1.37;0.90;;;11.40;99.90;;;;;;5005913;28;20391;-79
2023/02/18 08:20:48;;;;;;;1.13;0.90;;;11.40;99.90;;;;;;5005728;28;20034;-80
2023/02/18 08:23:15;;;;;;;1.17;0.80;;;11.40;99.90;;;;;;5002463;28;20030;-80
2023/02/18 08:25:46;;;;;;;1.53;1.00;;;11.40;99.90;;;;;;4996161;28;20034;-81
2023/02/18 08:28:12;;;;;;;2.53;0.90;;;11.50;99.90;;;;;;4993562;28;20032;-79
2023/02/18 08:30:37;;;;;;;1.05;0.77;;;11.50;99.90;;;;;;4996037;28;20034;-81
2023/02/18 08:33:03;;;;;;;1.90;0.70;;;11.50;99.90;;;;;;4995833;28;20120;-80
2023/02/18 08:35:29;;;;;;;1.03;0.70;;;11.50;99.90;;;;;;4992492;28;20050;-81
2023/02/18 08:37:54;;;;;;;1.03;0.80;;;11.60;99.90;;;;;;4994922;28;20034;-81
2023/02/18 08:40:20;;;;;;;1.93;0.73;;;11.60;99.90;;;;;;5006465;28;20038;-80
2023/02/18 08:42:46;;;;;;;1.08;0.70;;;11.70;99.90;;;;;;4997342;28;20479;-80
2023/02/18 08:45:11;;;;;;;2.00;0.80;;;11.70;99.90;;;;;;4995200;28;20069;-80
2023/02/18 08:47:37;;;;;;;1.10;0.83;;;11.80;99.90;;;;;;4994511;28;20018;-80
2023/02/18 08:50:03;;;;;;;2.00;1.10;;;11.70;99.90;;;;;;4994830;28;20773;-80
2023/02/18 08:52:29;;;;;;;0.70;0.70;;;11.70;99.90;;;;;;4997685;28;20490;-80
2023/02/18 08:54:55;;;;;;;0.88;0.80;;;11.60;99.90;;;;;;4991406;28;20127;-82
2023/02/18 08:57:20;;;;;;;1.02;0.80;;;11.60;99.90;;;;;;4992942;28;20037;-81
2023/02/18 08:59:46;;;;;;;3.38;1.10;;;11.70;99.90;;;;;;4994479;28;20080;-82
2023/02/18 09:02:14;;;;;;;1.77;0.93;;;11.70;99.90;;;;;;4993931;28;20057;-81
2023/02/18 09:04:40;;;;;;;1.83;1.30;;;11.80;99.90;;;;;;4993115;28;21317;-76
2023/02/18 09:07:06;;;;;;;0.93;0.80;;;11.80;99.90;;;;;;4996969;28;20022;-76
2023/02/18 09:09:31;;;;;;;0.98;0.80;;;11.90;99.90;;;;;;4996425;28;20111;-76
2023/02/18 09:11:57;;;;;;;1.83;0.83;;;11.90;99.90;;;;;;4995818;28;20026;-77
2023/02/18 09:14:23;;;;;;;1.60;0.80;;;11.90;99.90;;;;;;4996455;28;20040;-76
2023/02/18 09:16:49;;;;;;;1.90;1.00;;;12.00;99.90;;;;;;4998495;28;20116;-76
2023/02/18 09:19:15;;;;;;;2.03;1.03;;;12.10;99.90;;;;;;4995355;28;20098;-76
2023/02/18 09:21:41;;;;;;;1.20;0.90;;;12.10;99.90;;;;;;4995372;28;20042;-76
2023/02/18 09:24:06;;;;;;;3.27;1.00;;;12.10;99.90;;;;;;4993798;28;20068;-76
2023/02/18 09:26:32;;;;;;;2.58;1.10;;;12.10;99.90;;;;;;4992816;28;20045;-77
2023/02/18 09:28:58;;;;;;;3.65;1.10;;;12.10;99.90;;;;;;4996123;28;20054;-77
2023/02/18 09:31:26;;;;;;;1.97;1.07;;;12.00;99.90;;;;;;4996739;28;20029;-76
2023/02/18 09:34:00;;;;;;;3.03;1.05;;;12.00;99.90;;;;;;4997378;28;20044;-77
2023/02/18 09:36:27;;;;;;;1.35;1.00;;;11.90;99.90;;;;;;4996258;28;20125;-77
2023/02/18 09:38:53;;;;;;;1.77;0.98;;;11.90;99.90;;;;;;4997618;28;20038;-77
2023/02/18 09:41:30;;;;;;;1.60;0.90;;;11.90;99.90;;;;;;4995992;28;20486;-76
2023/02/18 09:44:18;;;;;;;1.52;0.90;;;12.00;99.90;;;;;;4994459;28;20052;-77
2023/02/18 09:46:54;;;;;;;1.83;0.80;;;12.10;99.90;;;;;;4997056;28;20580;-77
2023/02/18 09:49:24;;;;;;;3.72;1.08;;;12.10;99.90;;;;;;4996830;28;20026;-76
2023/02/18 09:51:50;;;;;;;3.03;1.00;;;12.00;99.90;;;;;;4999520;28;20434;-76
2023/02/18 09:54:19;;;;;;;2.00;0.90;;;12.10;99.90;;;;;;4996392;28;20045;-77
2023/02/18 09:56:46;;;;;;;1.10;0.88;;;12.10;99.90;;;;;;4999004;28;20022;-77
2023/02/18 09:59:18;;;;;;;1.67;1.02;;;12.30;99.90;;;;;;4999252;28;20017;-74
2023/02/18 10:01:47;;;;;;;1.38;1.05;;;12.40;99.90;;;;;;4996093;28;20026;-76
2023/02/18 10:04:33;;;;;;;1.25;0.90;;;12.60;99.90;;;;;;4994071;28;20487;-76
2023/02/18 10:07:02;;;;;;;2.05;1.23;;;12.70;99.90;;;;;;4994522;28;20025;-76
2023/02/18 10:09:32;;;;;;;1.08;0.90;;;12.90;99.90;;;;;;4998173;28;20022;-76
2023/02/18 10:12:11;;;;;;;0.98;0.90;;;13.00;99.90;;;;;;4997605;28;20026;-76
2023/02/18 10:14:37;;;;;;;2.25;0.82;;;12.90;99.90;;;;;;5000265;28;20037;-76
2023/02/18 10:17:04;;;;;;;2.15;0.98;;;12.90;99.90;;;;;;4999157;28;20093;-77
2023/02/18 10:19:35;;;;;;;2.35;1.00;;;13.00;99.90;;;;;;4998634;28;20113;-78
2023/02/18 10:22:03;;;;;;;3.38;1.00;;;13.00;99.90;;;;;;4998473;28;20114;-78
2023/02/18 10:24:34;;;;;;;1.50;1.00;;;13.00;99.90;;;;;;4997212;28;20097;-77
2023/02/18 10:27:02;;;;;;;2.08;1.20;;;13.10;99.90;;;;;;4996197;28;20026;-77
2023/02/18 10:29:31;;;;;;;3.22;1.00;;;13.20;99.90;;;;;;4998999;28;20041;-77
2023/02/18 10:32:22;;;;;;;2.05;1.10;;;13.40;99.90;;;;;;5002278;28;20026;-76
2023/02/18 10:35:14;;;;;;;3.22;1.05;;;13.40;99.90;;;;;;4996095;28;20105;-76
2023/02/18 10:38:04;;;;;;;1.45;1.00;;;13.50;99.90;;;;;;4997760;28;20018;-76
2023/02/18 10:40:36;;;;;;;1.90;1.00;;;13.70;99.90;;;;;;4997890;28;20116;-73
2023/02/18 10:43:20;;;;;;;3.92;1.35;;;13.70;99.90;;;;;;4997788;28;20054;-72
2023/02/18 10:46:25;;;;;;;2.38;1.05;;;13.70;99.90;;;;;;5003193;28;20026;-74
2023/02/18 10:49:02;;;;;;;1.42;1.05;;;13.60;99.90;;;;;;5000856;28;20037;-74
2023/02/18 10:51:32;;;;;;;2.30;1.10;;;13.50;99.90;;;;;;5004101;28;20447;-74
2023/02/18 10:53:57;;;;;;;2.55;1.10;;;13.50;99.90;;;;;;4999928;28;20037;-74
2023/02/18 10:56:47;;;;;;;1.63;0.93;;;13.60;99.90;;;;;;5000009;28;20019;-74
2023/02/18 10:59:26;;;;;;;1.92;1.08;;;13.70;99.90;;;;;;5002789;28;20033;-74
2023/02/18 11:02:17;;;;;;;3.63;1.05;;;13.70;99.90;;;;;;4998819;28;20026;-74
2023/02/18 11:04:45;;;;;;;3.05;1.00;;;13.70;99.90;;;;;;5003279;28;20117;-74
2023/02/18 11:07:21;;;;;;;2.53;0.77;;;13.90;99.90;;;;;;5002958;28;20144;-74
2023/02/18 11:09:52;;;;;;;1.20;0.75;;;14.00;99.90;;;;;;5000260;28;20033;-74
2023/02/18 11:12:33;;;;;;;3.88;1.02;;;14.00;99.90;;;;;;5003341;28;20042;-74
2023/02/18 11:15:14;;;;;;;8.77;1.30;;;14.20;99.90;;;;;;5000407;28;20025;-74
2023/02/18 11:17:41;;;;;;;1.38;0.80;;;14.40;99.90;;;;;;5001875;28;20037;-74
2023/02/18 11:20:34;;;;;;;0.88;0.80;;;14.60;99.90;;;;;;5001835;28;20471;-74
2023/02/18 11:23:05;;;;;;;4.32;1.02;;;14.50;99.90;;;;;;5003066;28;20061;-74
2023/02/18 11:25:33;;;;;;;3.13;0.75;;;14.70;99.90;;;;;;5014087;28;20105;-74
2023/02/18 11:28:39;;;;;;;3.25;0.98;;;14.90;99.90;;;;;;5001645;28;20014;-74
2023/02/18 11:31:05;;;;;;;1.40;0.90;;;15.10;99.90;;;;;;5001640;28;20029;-74
2023/02/18 11:33:39;;;;;;;2.88;0.77;;;15.20;99.90;;;;;;5001114;28;20038;-74
2023/02/18 11:36:21;;;;;;;2.42;0.80;;;15.30;99.90;;;;;;4999589;28;20033;-74
2023/02/18 11:38:54;;;;;;;2.85;0.75;;;15.50;99.90;;;;;;4998898;28;20038;-74
2023/02/18 11:41:29;;;;;;;2.83;0.90;;;15.70;99.90;;;;;;5004625;28;20056;-74
2023/02/18 11:43:55;;;;;;;0.93;0.70;;;15.70;99.90;;;;;;4999337;28;20121;-74
2023/02/18 11:46:24;;;;;;;2.20;0.90;;;15.70;99.90;;;;;;5002164;28;20032;-74
2023/02/18 11:48:50;;;;;;;1.13;0.70;;;15.60;99.90;;;;;;5002474;28;20022;-74
2023/02/18 11:51:23;;;;;;;2.22;0.82;;;15.50;99.90;;;;;;5002893;28;20475;-74
2023/02/18 11:53:58;;;;;;;2.75;0.70;;;15.50;99.90;;;;;;5000004;28;20164;-74
2023/02/18 11:56:24;;;;;;;;;;;15.50;99.90;;;;;;5002545;28;20022;-74
2023/02/18 11:58:51;;;;;;;1.60;0.90;;;15.50;99.90;;;;;;5000757;28;19909;-74
2023/02/18 12:01:34;;;;;;;2.40;0.65;;;15.40;99.90;;;;;;4998728;28;20150;-74
2023/02/18 12:04:16;;;;;;;1.10;0.80;;;15.30;99.90;;;;;;5001024;28;20030;-73
2023/02/18 12:06:52;;;;;;;1.88;0.90;;;15.20;99.90;;;;;;4999718;28;20022;-74
2023/02/18 12:09:25;;;;;;;2.00;0.90;;;15.00;99.90;;;;;;4999396;28;20113;-74
2023/02/18 12:11:55;;;;;;;1.65;0.60;;;14.90;99.90;;;;;;5002331;28;20537;-74
2023/02/18 12:14:22;;;;;;;1.15;0.90;;;15.00;99.90;;;;;;5001028;28;20782;-74
2023/02/18 12:17:15;;;;;;;1.83;0.80;;;14.90;99.90;;;;;;5001378;28;20084;-74
2023/02/18 12:19:58;;;;;;;2.40;1.10;;;15.00;99.90;;;;;;5001010;28;20022;-74
2023/02/18 12:22:47;;;;;;;6.57;1.50;;;15.10;99.90;;;;;;5013686;28;20034;-74
2023/02/18 12:25:22;;;;;;;2.22;1.00;;;14.90;99.90;;;;;;4999481;28;20501;-74
2023/02/18 12:27:53;;;;;;;;;;;14.90;99.90;;;;;;4999531;28;20383;-74
2023/02/18 12:30:27;;;;;;;3.13;1.13;;;14.90;99.90;;;;;;5001216;28;19918;-74
2023/02/18 12:33:05;;;;;;;0.90;0.70;;;14.80;99.90;;;;;;5001086;28;20033;-74
2023/02/18 12:35:42;;;;;;;1.90;0.77;;;14.80;99.90;;;;;;5000395;28;20038;-74
2023/02/18 12:38:26;;;;;;;3.80;0.80;;;14.80;99.90;;;;;;5000659;28;20484;-74
2023/02/18 12:41:01;;;;;;;0.95;0.70;;;14.80;99.90;;;;;;5000448;28;20538;-74
2023/02/18 12:43:44;;;;;;;2.30;0.70;;;14.80;99.90;;;;;;4998896;28;20153;-74
2023/02/18 12:46:37;;;;;;;1.63;0.80;;;14.80;99.90;;;;;;5001891;28;20854;-74
2023/02/18 12:49:27;;;;;;;1.92;0.90;;;14.90;99.90;;;;;;5000063;28;20026;-74
2023/02/18 12:52:10;;;;;;;4.32;1.00;;;15.00;99.90;;;;;;4998911;28;20046;-74
2023/02/18 12:54:38;;;;;;;1.90;0.90;;;14.90;99.90;;;;;;4996721;28;20034;-75
2023/02/18 12:57:41;;;;;;;1.20;0.82;;;14.80;99.90;;;;;;4999456;28;20029;-75
2023/02/18 13:00:35;;;;;;;1.83;0.80;;;14.90;99.90;;;;;;4999656;28;20025;-75
2023/02/18 13:03:04;;;;;;;2.05;0.90;;;14.90;99.90;;;;;;5000057;28;20479;-75
2023/02/18 13:05:43;;;;;;;1.27;0.80;;;14.80;99.90;;;;;;4997966;28;20021;-75
2023/02/18 13:08:32;;;;;;;0.85;0.75;;;14.80;99.90;;;;;;4997881;28;20352;-74